createdAt,value
2023-02-16T00:02:10.923Z,27.67
2023-02-16T00:07:27.268Z,26.70
2023-02-16T00:09:56.034Z,26.47
2023-02-16T00:12:29.683Z,28.43
2023-02-16T00:14:57.090Z,26.83
2023-02-16T00:20:30.130Z,28.43
2023-02-16T00:22:57.650Z,36.00
2023-02-16T00:25:26.408Z,35.87
2023-02-16T00:27:53.884Z,34.40
2023-02-16T00:30:22.781Z,34.63
2023-02-16T00:32:50.863Z,27.20
2023-02-16T00:38:06.987Z,30.10
2023-02-16T00:40:36.018Z,28.97
2023-02-16T00:43:03.655Z,24.70
2023-02-16T00:45:32.024Z,27.63
2023-02-16T00:47:59.467Z,29.27
2023-02-16T00:53:15.310Z,25.07
2023-02-16T00:55:44.754Z,28.23
2023-02-16T00:58:17.324Z,29.47
2023-02-16T01:00:47.879Z,24.20
2023-02-16T01:03:18.085Z,30.87
2023-02-16T01:05:45.794Z,28.57
2023-02-16T01:08:33.077Z,28.60
2023-02-16T01:11:09.912Z,28.77
2023-02-16T01:16:42.279Z,28.53
2023-02-16T01:19:11.550Z,29.80
2023-02-16T01:21:40.078Z,29.23
2023-02-16T01:24:07.850Z,26.20
2023-02-16T01:29:38.333Z,30.67
2023-02-16T01:32:05.964Z,28.27
2023-02-16T01:34:36.717Z,29.63
2023-02-16T01:37:04.144Z,31.70
2023-02-16T01:39:31.615Z,33.43
2023-02-16T01:42:14.835Z,32.67
2023-02-16T01:44:48.324Z,31.00
2023-02-16T01:47:27.486Z,32.10
2023-02-16T01:52:45.230Z,30.90
2023-02-16T01:55:18.597Z,28.30
2023-02-16T01:57:48.498Z,31.53
2023-02-16T02:00:27.212Z,31.47
2023-02-16T02:03:16.022Z,31.97
2023-02-16T02:08:43.910Z,32.73
2023-02-16T02:14:12.816Z,32.93
2023-02-16T02:16:41.674Z,35.20
2023-02-16T02:19:09.159Z,30.40
2023-02-16T02:25:05.414Z,37.27
2023-02-16T02:27:34.579Z,35.03
2023-02-16T02:30:20.554Z,30.67
2023-02-16T02:33:14.154Z,34.00
2023-02-16T02:35:49.382Z,30.60
2023-02-16T02:38:22.208Z,34.70
2023-02-16T02:43:43.674Z,36.67
2023-02-16T02:46:14.399Z,35.50
2023-02-16T02:48:41.972Z,35.07
2023-02-16T02:51:31.941Z,32.97
2023-02-16T02:54:21.945Z,32.50
2023-02-16T03:00:25.809Z,34.70
2023-02-16T03:02:57.137Z,33.87
2023-02-16T03:05:26.666Z,33.13
2023-02-16T03:07:57.315Z,33.60
2023-02-16T03:10:45.258Z,39.27
2023-02-16T03:13:15.015Z,37.33
2023-02-16T03:15:45.246Z,35.00
2023-02-16T03:18:31.441Z,34.63
2023-02-16T03:21:17.747Z,35.07
2023-02-16T03:26:41.013Z,34.70
2023-02-16T03:29:19.084Z,39.27
2023-02-16T03:31:47.794Z,39.10
2023-02-16T03:34:17.237Z,44.80
2023-02-16T03:36:47.534Z,43.40
2023-02-16T03:39:15.343Z,39.90
2023-02-16T03:41:44.531Z,44.60
2023-02-16T03:44:11.976Z,42.30
2023-02-16T03:46:39.452Z,39.63
2023-02-16T03:49:06.930Z,39.07
2023-02-16T03:51:35.662Z,37.57
2023-02-16T03:54:03.084Z,39.73
2023-02-16T03:56:30.531Z,38.50
2023-02-16T03:58:57.935Z,41.60
2023-02-16T04:01:25.686Z,34.43
2023-02-16T04:03:53.168Z,33.13
2023-02-16T04:06:20.606Z,35.93
2023-02-16T04:08:50.700Z,33.87
2023-02-16T04:14:16.248Z,35.90
2023-02-16T04:16:43.723Z,37.43
2023-02-16T04:19:11.161Z,37.60
2023-02-16T04:21:38.607Z,36.97
2023-02-16T04:24:07.963Z,40.07
2023-02-16T04:26:35.862Z,45.27
2023-02-16T04:29:03.324Z,37.97
2023-02-16T04:31:30.842Z,35.53
2023-02-16T04:33:58.433Z,38.27
2023-02-16T04:36:25.930Z,39.50
2023-02-16T04:38:53.353Z,35.10
2023-02-16T04:41:22.115Z,36.63
2023-02-16T04:46:37.993Z,36.63
2023-02-16T04:49:05.630Z,39.60
2023-02-16T04:51:33.053Z,37.03
2023-02-16T04:54:00.923Z,40.60
2023-02-16T04:59:32.403Z,38.03
2023-02-16T05:01:59.867Z,40.33
2023-02-16T05:07:23.993Z,37.50
2023-02-16T05:09:51.608Z,39.00
2023-02-16T05:12:45.264Z,41.07
2023-02-16T05:15:14.026Z,39.23
2023-02-16T05:21:01.618Z,33.67
2023-02-16T05:23:29.207Z,39.90
2023-02-16T05:25:56.690Z,40.13
2023-02-16T05:28:24.449Z,41.97
2023-02-16T05:30:54.545Z,39.60
2023-02-16T05:33:21.997Z,41.67
2023-02-16T05:35:49.474Z,36.63
2023-02-16T05:38:16.909Z,29.73
2023-02-16T05:43:50.058Z,34.73
2023-02-16T05:46:19.011Z,34.00
2023-02-16T05:48:46.701Z,35.50
2023-02-16T05:51:14.587Z,32.77
2023-02-16T05:56:40.995Z,36.10
2023-02-16T05:59:08.413Z,34.90
2023-02-16T06:04:29.451Z,32.80
2023-02-16T06:06:56.901Z,35.43
2023-02-16T06:09:24.398Z,33.83
2023-02-16T06:11:51.793Z,36.23
2023-02-16T06:14:21.352Z,33.73
2023-02-16T06:16:51.290Z,34.80
2023-02-16T06:19:42.722Z,29.40
2023-02-16T06:22:11.522Z,35.10
2023-02-16T06:24:39.910Z,33.77
2023-02-16T06:27:07.460Z,28.27
2023-02-16T06:29:34.971Z,32.70
2023-02-16T06:32:02.703Z,31.77
2023-02-16T06:37:22.947Z,30.80
2023-02-16T06:39:50.463Z,33.03
2023-02-16T06:42:18.068Z,31.47
2023-02-16T06:44:45.695Z,30.90
2023-02-16T06:47:13.160Z,32.07
2023-02-16T06:49:40.593Z,30.60
2023-02-16T06:55:12.711Z,30.33
2023-02-16T06:57:40.202Z,35.23
2023-02-16T07:00:09.191Z,33.33
2023-02-16T07:02:37.568Z,30.40
2023-02-16T07:08:08.306Z,30.73
2023-02-16T07:10:48.980Z,33.17
2023-02-16T07:13:17.458Z,30.97
2023-02-16T07:15:45.137Z,29.50
2023-02-16T07:18:15.532Z,30.47
2023-02-16T07:20:43.125Z,29.80
2023-02-16T07:23:10.719Z,30.33
2023-02-16T07:28:38.505Z,29.30
2023-02-16T07:31:10.033Z,25.90
2023-02-16T07:33:37.692Z,29.70
2023-02-16T07:36:06.074Z,26.80
2023-02-16T07:38:33.805Z,31.83
2023-02-16T07:41:01.774Z,26.87
2023-02-16T07:46:33.539Z,26.50
2023-02-16T07:49:01.416Z,28.47
2023-02-16T07:51:30.556Z,28.10
2023-02-16T07:53:58.985Z,30.03
2023-02-16T07:56:27.885Z,27.13
2023-02-16T07:58:55.860Z,29.13
2023-02-16T08:01:24.102Z,28.23
2023-02-16T08:03:53.259Z,27.73
2023-02-16T08:06:21.243Z,26.67
2023-02-16T08:08:49.552Z,29.27
2023-02-16T08:14:17.678Z,27.00
2023-02-16T08:16:45.305Z,27.20
2023-02-16T08:19:14.195Z,26.57
2023-02-16T08:21:41.905Z,27.00
2023-02-16T08:24:13.034Z,28.27
2023-02-16T08:26:43.049Z,29.53
2023-02-16T08:29:12.994Z,30.93
2023-02-16T08:31:41.563Z,28.97
2023-02-16T08:37:14.253Z,26.00
2023-02-16T08:39:42.155Z,33.07
2023-02-16T08:42:13.027Z,28.17
2023-02-16T08:47:44.018Z,28.37
2023-02-16T08:50:12.095Z,26.63
2023-02-16T08:52:40.982Z,25.77
2023-02-16T08:55:08.651Z,30.80
2023-02-16T08:57:36.210Z,29.20
2023-02-16T09:00:21.690Z,27.33
2023-02-16T09:02:49.948Z,30.10
2023-02-16T09:08:17.438Z,26.43
2023-02-16T09:10:45.065Z,31.87
2023-02-16T09:13:14.709Z,29.87
2023-02-16T09:15:42.791Z,30.67
2023-02-16T09:18:10.410Z,32.53
2023-02-16T09:20:39.063Z,27.97
2023-02-16T09:23:06.948Z,28.30
2023-02-16T09:25:37.021Z,29.63
2023-02-16T09:28:09.333Z,30.15
2023-02-16T09:30:39.160Z,28.57
2023-02-16T09:36:10.618Z,25.50
2023-02-16T09:38:39.970Z,29.00
2023-02-16T09:41:11.684Z,26.70
2023-02-16T09:43:46.388Z,25.17
2023-02-16T09:46:17.174Z,27.83
2023-02-16T09:48:48.518Z,27.30
2023-02-16T09:54:23.789Z,24.27
2023-02-16T09:56:56.490Z,25.60
2023-02-16T09:59:35.926Z,28.40
2023-02-16T10:02:39.617Z,29.87
2023-02-16T10:05:18.135Z,26.93
2023-02-16T10:07:54.661Z,27.73
2023-02-16T10:13:20.277Z,26.33
2023-02-16T10:15:49.550Z,23.93
2023-02-16T10:18:23.002Z,26.97
2023-02-16T10:20:53.249Z,27.23
2023-02-16T10:23:31.945Z,24.37
2023-02-16T10:26:03.296Z,26.77
2023-02-16T10:28:39.075Z,25.63
2023-02-16T10:31:13.923Z,24.97
2023-02-16T10:33:43.853Z,24.73
2023-02-16T10:36:17.875Z,27.80
2023-02-16T10:38:52.048Z,26.33
2023-02-16T10:41:27.889Z,26.60
2023-02-16T10:43:59.397Z,27.63
2023-02-16T10:46:37.638Z,28.57
2023-02-16T10:49:05.220Z,28.70
2023-02-16T10:51:35.108Z,27.10
2023-02-16T10:54:05.542Z,26.67
2023-02-16T10:59:40.868Z,28.23
2023-02-16T11:02:19.867Z,25.47
2023-02-16T11:07:53.407Z,26.57
2023-02-16T11:10:23.066Z,24.13
2023-02-16T11:12:57.287Z,26.30
2023-02-16T11:15:27.458Z,27.53
2023-02-16T11:17:58.040Z,23.87
2023-02-16T11:20:30.042Z,28.10
2023-02-16T11:23:16.580Z,25.90
2023-02-16T11:25:58.342Z,27.43
2023-02-16T11:28:32.676Z,30.53
2023-02-16T11:34:06.670Z,27.20
2023-02-16T11:36:37.449Z,25.03
2023-02-16T11:39:08.362Z,26.63
2023-02-16T11:44:41.584Z,29.47
2023-02-16T11:47:11.132Z,28.27
2023-02-16T11:49:41.990Z,27.50
2023-02-16T11:52:29.081Z,26.07
2023-02-16T11:55:20.502Z,27.47
2023-02-16T11:57:48.859Z,28.03
2023-02-16T12:03:31.470Z,26.00
2023-02-16T12:06:11.585Z,30.27
2023-02-16T12:08:52.956Z,26.60
2023-02-16T12:11:28.053Z,29.50
2023-02-16T12:14:05.130Z,29.33
2023-02-16T12:16:38.013Z,29.97
2023-02-16T12:19:11.727Z,33.13
2023-02-16T12:21:45.301Z,27.80
2023-02-16T12:24:22.015Z,29.80
2023-02-16T12:26:51.811Z,32.43
2023-02-16T12:32:21.777Z,28.23
2023-02-16T12:34:56.847Z,26.97
2023-02-16T12:40:20.232Z,28.27
2023-02-16T12:45:52.124Z,24.73
2023-02-16T12:48:37.331Z,27.40
2023-02-16T12:51:10.080Z,26.60
2023-02-16T12:53:44.746Z,29.57
2023-02-16T12:59:19.051Z,28.83
2023-02-16T13:01:47.538Z,26.07
2023-02-16T13:04:20.799Z,26.43
2023-02-16T13:06:52.596Z,29.00
2023-02-16T13:12:07.778Z,26.27
2023-02-16T13:17:42.251Z,26.73
2023-02-16T13:20:16.488Z,22.43
2023-02-16T13:22:52.627Z,28.10
2023-02-16T13:25:37.260Z,27.03
2023-02-16T13:28:16.514Z,25.77
2023-02-16T13:33:57.045Z,27.47
2023-02-16T13:36:41.139Z,27.73
2023-02-16T13:39:25.816Z,28.77
2023-02-16T13:42:08.501Z,30.50
2023-02-16T13:44:39.419Z,25.23
2023-02-16T13:47:07.885Z,28.93
2023-02-16T13:49:42.302Z,28.33
2023-02-16T13:52:10.783Z,27.10
2023-02-16T13:54:40.474Z,27.37
2023-02-16T13:57:11.968Z,27.07
2023-02-16T13:59:59.512Z,29.83
2023-02-16T14:05:36.778Z,29.03
2023-02-16T14:08:16.773Z,28.90
2023-02-16T14:11:05.544Z,29.53
2023-02-16T14:13:35.952Z,24.60
2023-02-16T14:16:08.780Z,29.97
2023-02-16T14:18:42.485Z,25.17
2023-02-16T14:24:06.296Z,28.23
2023-02-16T14:26:52.122Z,31.00
2023-02-16T14:29:39.812Z,27.70
2023-02-16T14:32:21.217Z,30.53
2023-02-16T14:37:37.959Z,30.97
2023-02-16T14:40:17.476Z,29.57
2023-02-16T14:42:52.641Z,27.67
2023-02-16T14:45:58.935Z,28.10
2023-02-16T14:48:48.561Z,28.20
2023-02-16T14:51:30.051Z,25.80
2023-02-16T14:56:49.467Z,31.60
2023-02-16T14:59:27.487Z,28.30
2023-02-16T15:01:55.677Z,28.27
2023-02-16T15:04:30.310Z,31.27
2023-02-16T15:06:59.907Z,29.23
2023-02-16T15:09:28.926Z,29.83
2023-02-16T15:12:17.138Z,33.97
2023-02-16T15:14:49.801Z,27.93
2023-02-16T15:17:26.800Z,27.17
2023-02-16T15:19:55.325Z,28.10
2023-02-16T15:22:25.571Z,28.63
2023-02-16T15:25:01.468Z,31.93
2023-02-16T15:27:32.861Z,26.40
2023-02-16T15:30:06.022Z,32.67
2023-02-16T15:35:38.182Z,35.70
2023-02-16T15:41:27.694Z,33.53
2023-02-16T15:43:57.672Z,31.67
2023-02-16T15:49:29.690Z,33.00
2023-02-16T15:54:55.155Z,30.37
2023-02-16T15:57:26.932Z,31.90
2023-02-16T15:59:58.671Z,29.07
2023-02-16T16:02:34.315Z,33.20
2023-02-16T16:08:04.638Z,29.80
2023-02-16T16:10:33.615Z,32.53
2023-02-16T16:13:38.916Z,33.77
2023-02-16T16:16:09.840Z,33.93
2023-02-16T16:21:47.666Z,37.53
2023-02-16T16:24:32.462Z,33.50
2023-02-16T16:27:01.565Z,33.13
2023-02-16T16:29:35.097Z,35.07
2023-02-16T16:32:05.036Z,34.80
2023-02-16T16:34:35.321Z,38.40
2023-02-16T16:37:03.795Z,35.13
2023-02-16T16:39:32.579Z,33.90
2023-02-16T16:42:20.880Z,32.87
2023-02-16T16:45:00.183Z,33.03
2023-02-16T16:50:39.889Z,34.53
2023-02-16T16:53:46.098Z,37.20
2023-02-16T16:56:14.828Z,34.77
2023-02-16T16:58:42.566Z,33.73
2023-02-16T17:04:23.565Z,35.23
2023-02-16T17:06:51.049Z,32.70
2023-02-16T17:09:18.513Z,37.10
2023-02-16T17:11:45.991Z,33.27
2023-02-16T17:14:17.345Z,34.20
2023-02-16T17:16:49.399Z,34.30
2023-02-16T17:19:21.879Z,34.67
2023-02-16T17:21:50.882Z,34.07
2023-02-16T17:24:18.325Z,31.47
2023-02-16T17:26:45.871Z,34.07
2023-02-16T17:29:13.281Z,39.50
2023-02-16T17:31:40.817Z,35.47
2023-02-16T17:34:08.588Z,34.90
2023-02-16T17:36:36.138Z,36.03
2023-02-16T17:41:53.334Z,33.57
2023-02-16T17:44:20.767Z,36.27
2023-02-16T17:46:48.228Z,32.57
2023-02-16T17:52:18.003Z,36.33
2023-02-16T17:54:45.419Z,31.20
2023-02-16T17:57:14.390Z,35.47
2023-02-16T17:59:42.173Z,36.53
2023-02-16T18:02:10.662Z,35.67
2023-02-16T18:04:40.821Z,34.17
2023-02-16T18:07:08.834Z,37.93
2023-02-16T18:09:36.274Z,38.00
2023-02-16T18:12:03.686Z,36.47
2023-02-16T18:14:32.425Z,38.17
2023-02-16T18:17:01.248Z,36.63
2023-02-16T18:19:30.186Z,39.27
2023-02-16T18:24:48.124Z,35.67
2023-02-16T18:27:15.959Z,35.03
2023-02-16T18:29:44.759Z,34.03
2023-02-16T18:32:12.238Z,37.83
2023-02-16T18:34:39.666Z,37.23
2023-02-16T18:37:07.102Z,33.53
2023-02-16T18:39:34.524Z,36.33
2023-02-16T18:42:01.947Z,35.97
2023-02-16T18:44:29.370Z,35.73
2023-02-16T18:46:58.140Z,34.80
2023-02-16T18:49:25.587Z,38.73
2023-02-16T18:54:44.547Z,35.97
2023-02-16T18:57:12.016Z,34.50
2023-02-16T18:59:39.598Z,34.00
2023-02-16T19:02:08.821Z,31.47
2023-02-16T19:04:36.265Z,33.67
2023-02-16T19:07:03.708Z,36.77
2023-02-16T19:09:31.192Z,32.50
2023-02-16T19:11:58.654Z,32.57
2023-02-16T19:17:04.781Z,31.70
2023-02-16T19:19:33.019Z,32.67
2023-02-16T19:22:00.534Z,30.73
2023-02-16T19:24:28.040Z,27.60
2023-02-16T19:26:55.552Z,30.93
2023-02-16T19:29:22.988Z,30.90
2023-02-16T19:31:50.546Z,27.40
2023-02-16T19:34:19.511Z,28.33
2023-02-16T19:36:46.935Z,23.87
2023-02-16T19:39:14.630Z,24.50
2023-02-16T19:41:43.633Z,23.97
2023-02-16T19:47:09.438Z,28.37
2023-02-16T19:49:38.245Z,28.93
2023-02-16T19:52:06.304Z,27.63
2023-02-16T19:54:34.839Z,25.73
2023-02-16T19:57:02.607Z,27.30
2023-02-16T20:02:32.625Z,28.27
2023-02-16T20:05:01.392Z,29.23
2023-02-16T20:10:09.735Z,32.63
2023-02-16T20:15:39.854Z,29.33
2023-02-16T20:18:08.332Z,27.93
2023-02-16T20:20:36.313Z,32.30
2023-02-16T20:23:03.746Z,30.60
2023-02-16T20:25:32.561Z,27.60
2023-02-16T20:28:00.065Z,29.37
2023-02-16T20:30:27.572Z,26.57
2023-02-16T20:32:55.027Z,31.33
2023-02-16T20:35:22.473Z,26.20
2023-02-16T20:37:49.872Z,29.63
2023-02-16T20:40:20.200Z,29.70
2023-02-16T20:42:48.959Z,29.17
2023-02-16T20:48:18.954Z,34.00
2023-02-16T20:50:46.461Z,27.90
2023-02-16T20:53:14.484Z,35.53
2023-02-16T20:55:41.985Z,26.60
2023-02-16T20:58:10.827Z,29.00
2023-02-16T21:00:38.551Z,31.20
2023-02-16T21:03:06.067Z,32.53
2023-02-16T21:08:21.860Z,29.83
2023-02-16T21:10:49.359Z,31.50
2023-02-16T21:13:18.216Z,32.60
2023-02-16T21:15:45.775Z,30.03
2023-02-16T21:18:13.280Z,29.43
2023-02-16T21:20:40.795Z,30.40
2023-02-16T21:23:08.345Z,29.67
2023-02-16T21:25:36.077Z,37.70
2023-02-16T21:28:03.594Z,33.17
2023-02-16T21:30:32.647Z,32.03
2023-02-16T21:33:00.140Z,35.40
2023-02-16T21:35:30.061Z,30.63
2023-02-16T21:37:58.035Z,32.93
2023-02-16T21:40:43.175Z,32.07
2023-02-16T21:43:10.868Z,33.83
2023-02-16T21:45:39.690Z,32.70
2023-02-16T21:48:24.330Z,31.53
2023-02-16T21:50:51.979Z,36.47
2023-02-16T21:53:19.445Z,33.40
2023-02-16T21:56:04.834Z,32.07
2023-02-16T21:58:34.279Z,33.03
2023-02-16T22:01:03.142Z,33.40
2023-02-16T22:03:30.948Z,31.57
2023-02-16T22:06:02.236Z,38.67
2023-02-16T22:08:30.717Z,37.57
2023-02-16T22:10:58.202Z,30.20
2023-02-16T22:16:30.507Z,37.33
2023-02-16T22:18:58.368Z,33.80
2023-02-16T22:21:26.308Z,34.77
2023-02-16T22:23:54.191Z,32.60
2023-02-16T22:29:23.808Z,31.00
2023-02-16T22:31:52.667Z,38.43
2023-02-16T22:34:22.298Z,38.47
2023-02-16T22:39:48.845Z,38.00
2023-02-16T22:42:16.364Z,33.00
2023-02-16T22:44:43.877Z,35.97
2023-02-16T22:47:12.774Z,39.70
2023-02-16T22:49:40.249Z,33.97
2023-02-16T22:52:08.514Z,42.33
2023-02-16T22:54:36.012Z,39.73
2023-02-16T22:59:59.809Z,45.03
2023-02-16T23:02:28.687Z,37.37
2023-02-16T23:04:58.485Z,40.23
2023-02-16T23:07:26.017Z,37.77
2023-02-16T23:09:53.707Z,39.37
2023-02-16T23:12:21.259Z,38.10
2023-02-16T23:14:49.508Z,43.40
2023-02-16T23:20:21.170Z,39.30
2023-02-16T23:22:48.591Z,39.17
2023-02-16T23:28:11.649Z,40.03
2023-02-16T23:30:42.982Z,39.90
2023-02-16T23:33:14.613Z,38.90
2023-02-16T23:35:43.643Z,43.97
2023-02-16T23:38:14.297Z,40.90
2023-02-16T23:40:42.099Z,38.03
2023-02-16T23:43:10.039Z,41.03
2023-02-16T23:45:38.351Z,41.80
2023-02-16T23:51:14.392Z,36.70
2023-02-16T23:53:42.104Z,37.10
2023-02-16T23:56:14.489Z,41.90
2023-02-16T23:58:44.935Z,34.73
